sensor_id;sensor_type;location;lat;lon;timestamp;P1;durP1;ratioP1;P2;durP2;ratioP2
69937;SDS011;57248;47.320;15.998;2022-12-18T00:01:04;13.68;;;3.88;;
69937;SDS011;57248;47.320;15.998;2022-12-18T00:03:37;11.13;;;2.90;;
69937;SDS011;57248;47.320;15.998;2022-12-18T00:06:03;10.50;;;3.25;;
69937;SDS011;57248;47.320;15.998;2022-12-18T00:08:34;10.60;;;3.07;;
69937;SDS011;57248;47.320;15.998;2022-12-18T00:11:07;10.25;;;3.20;;
69937;SDS011;57248;47.320;15.998;2022-12-18T00:13:41;11.68;;;3.53;;
69937;SDS011;57248;47.320;15.998;2022-12-18T00:16:15;11.68;;;3.38;;
69937;SDS011;57248;47.320;15.998;2022-12-18T00:19:06;9.73;;;3.10;;
69937;SDS011;57248;47.320;15.998;2022-12-18T00:21:45;10.87;;;3.57;;
69937;SDS011;57248;47.320;15.998;2022-12-18T00:24:17;11.55;;;3.42;;
69937;SDS011;57248;47.320;15.998;2022-12-18T00:26:50;11.55;;;3.28;;
69937;SDS011;57248;47.320;15.998;2022-12-18T00:29:22;12.40;;;3.42;;
69937;SDS011;57248;47.320;15.998;2022-12-18T00:31:55;10.50;;;3.10;;
69937;SDS011;57248;47.320;15.998;2022-12-18T00:34:26;10.90;;;3.60;;
69937;SDS011;57248;47.320;15.998;2022-12-18T00:36:58;10.93;;;3.35;;
69937;SDS011;57248;47.320;15.998;2022-12-18T00:39:30;10.70;;;3.28;;
69937;SDS011;57248;47.320;15.998;2022-12-18T00:42:02;10.70;;;2.95;;
69937;SDS011;57248;47.320;15.998;2022-12-18T00:44:53;10.18;;;3.20;;
69937;SDS011;57248;47.320;15.998;2022-12-18T00:47:25;10.37;;;3.00;;
69937;SDS011;57248;47.320;15.998;2022-12-18T00:49:57;9.98;;;3.17;;
69937;SDS011;57248;47.320;15.998;2022-12-18T00:52:30;8.90;;;2.67;;
69937;SDS011;57248;47.320;15.998;2022-12-18T00:54:55;10.37;;;2.70;;
69937;SDS011;57248;47.320;15.998;2022-12-18T00:57:26;8.95;;;2.55;;
69937;SDS011;57248;47.320;15.998;2022-12-18T00:59:58;9.02;;;2.83;;
69937;SDS011;57248;47.320;15.998;2022-12-18T01:02:30;10.75;;;2.90;;
69937;SDS011;57248;47.320;15.998;2022-12-18T01:05:03;8.90;;;2.90;;
69937;SDS011;57248;47.320;15.998;2022-12-18T01:07:36;9.60;;;2.83;;
69937;SDS011;57248;47.320;15.998;2022-12-18T01:10:08;10.20;;;2.50;;
69937;SDS011;57248;47.320;15.998;2022-12-18T01:12:41;8.15;;;2.47;;
69937;SDS011;57248;47.320;15.998;2022-12-18T01:15:15;9.15;;;2.55;;
69937;SDS011;57248;47.320;15.998;2022-12-18T01:17:47;9.17;;;2.53;;
69937;SDS011;57248;47.320;15.998;2022-12-18T01:20:26;9.90;;;2.28;;
69937;SDS011;57248;47.320;15.998;2022-12-18T01:22:58;11.73;;;2.72;;
69937;SDS011;57248;47.320;15.998;2022-12-18T01:25:32;10.43;;;3.03;;
69937;SDS011;57248;47.320;15.998;2022-12-18T01:28:08;10.77;;;3.22;;
69937;SDS011;57248;47.320;15.998;2022-12-18T01:30:40;10.70;;;2.77;;
69937;SDS011;57248;47.320;15.998;2022-12-18T01:33:11;11.68;;;2.90;;
69937;SDS011;57248;47.320;15.998;2022-12-18T01:35:43;9.90;;;3.15;;
69937;SDS011;57248;47.320;15.998;2022-12-18T01:38:15;11.73;;;3.38;;
69937;SDS011;57248;47.320;15.998;2022-12-18T01:40:47;11.70;;;3.35;;
69937;SDS011;57248;47.320;15.998;2022-12-18T01:43:19;10.33;;;3.17;;
69937;SDS011;57248;47.320;15.998;2022-12-18T01:45:51;14.40;;;3.92;;
69937;SDS011;57248;47.320;15.998;2022-12-18T01:48:23;14.02;;;4.05;;
69937;SDS011;57248;47.320;15.998;2022-12-18T01:50:56;12.05;;;4.15;;
69937;SDS011;57248;47.320;15.998;2022-12-18T01:53:22;14.53;;;3.67;;
69937;SDS011;57248;47.320;15.998;2022-12-18T01:55:56;12.95;;;3.75;;
69937;SDS011;57248;47.320;15.998;2022-12-18T01:59:04;11.73;;;2.92;;
69937;SDS011;57248;47.320;15.998;2022-12-18T02:01:36;9.97;;;2.80;;
69937;SDS011;57248;47.320;15.998;2022-12-18T02:06:55;8.75;;;2.35;;
69937;SDS011;57248;47.320;15.998;2022-12-18T02:10:19;9.52;;;2.30;;
69937;SDS011;57248;47.320;15.998;2022-12-18T02:12:56;9.68;;;2.28;;
69937;SDS011;57248;47.320;15.998;2022-12-18T02:18:40;7.68;;;2.00;;
69937;SDS011;57248;47.320;15.998;2022-12-18T02:24:08;9.32;;;2.45;;
69937;SDS011;57248;47.320;15.998;2022-12-18T02:26:56;11.18;;;2.95;;
69937;SDS011;57248;47.320;15.998;2022-12-18T02:32:24;9.80;;;2.45;;
69937;SDS011;57248;47.320;15.998;2022-12-18T02:34:58;9.65;;;2.20;;
69937;SDS011;57248;47.320;15.998;2022-12-18T02:37:34;11.27;;;3.22;;
69937;SDS011;57248;47.320;15.998;2022-12-18T02:40:08;12.25;;;3.53;;
69937;SDS011;57248;47.320;15.998;2022-12-18T02:42:42;11.40;;;2.40;;
69937;SDS011;57248;47.320;15.998;2022-12-18T02:45:16;10.15;;;2.65;;
69937;SDS011;57248;47.320;15.998;2022-12-18T02:47:43;9.68;;;2.47;;
69937;SDS011;57248;47.320;15.998;2022-12-18T02:50:27;11.07;;;2.53;;
69937;SDS011;57248;47.320;15.998;2022-12-18T02:58:55;9.90;;;2.75;;
69937;SDS011;57248;47.320;15.998;2022-12-18T03:02:01;9.70;;;2.70;;
69937;SDS011;57248;47.320;15.998;2022-12-18T03:07:23;13.65;;;3.55;;
69937;SDS011;57248;47.320;15.998;2022-12-18T03:09:59;11.97;;;2.83;;
69937;SDS011;57248;47.320;15.998;2022-12-18T03:12:33;13.15;;;3.17;;
69937;SDS011;57248;47.320;15.998;2022-12-18T03:17:56;13.85;;;3.58;;
69937;SDS011;57248;47.320;15.998;2022-12-18T03:20:39;11.90;;;3.20;;
69937;SDS011;57248;47.320;15.998;2022-12-18T03:23:20;10.87;;;3.13;;
69937;SDS011;57248;47.320;15.998;2022-12-18T03:25:56;12.50;;;2.90;;
69937;SDS011;57248;47.320;15.998;2022-12-18T03:28:32;14.05;;;3.35;;
69937;SDS011;57248;47.320;15.998;2022-12-18T03:31:09;12.80;;;3.65;;
69937;SDS011;57248;47.320;15.998;2022-12-18T03:33:46;11.90;;;3.30;;
69937;SDS011;57248;47.320;15.998;2022-12-18T03:36:31;9.50;;;2.60;;
69937;SDS011;57248;47.320;15.998;2022-12-18T03:39:04;9.90;;;2.75;;
69937;SDS011;57248;47.320;15.998;2022-12-18T03:41:46;10.93;;;3.00;;
69937;SDS011;57248;47.320;15.998;2022-12-18T03:44:47;9.05;;;2.75;;
69937;SDS011;57248;47.320;15.998;2022-12-18T03:50:09;11.20;;;3.00;;
69937;SDS011;57248;47.320;15.998;2022-12-18T03:52:57;9.55;;;2.63;;
69937;SDS011;57248;47.320;15.998;2022-12-18T03:55:43;9.10;;;2.15;;
69937;SDS011;57248;47.320;15.998;2022-12-18T03:58:17;11.23;;;2.92;;
69937;SDS011;57248;47.320;15.998;2022-12-18T04:01:11;10.90;;;3.00;;
69937;SDS011;57248;47.320;15.998;2022-12-18T04:03:46;11.53;;;2.83;;
69937;SDS011;57248;47.320;15.998;2022-12-18T04:06:21;10.27;;;3.28;;
69937;SDS011;57248;47.320;15.998;2022-12-18T04:08:47;12.50;;;3.40;;
69937;SDS011;57248;47.320;15.998;2022-12-18T04:11:24;12.20;;;3.28;;
69937;SDS011;57248;47.320;15.998;2022-12-18T04:13:56;12.88;;;3.17;;
69937;SDS011;57248;47.320;15.998;2022-12-18T04:16:29;12.87;;;2.80;;
69937;SDS011;57248;47.320;15.998;2022-12-18T04:19:04;10.07;;;2.92;;
69937;SDS011;57248;47.320;15.998;2022-12-18T04:21:40;10.30;;;3.13;;
69937;SDS011;57248;47.320;15.998;2022-12-18T04:24:13;8.45;;;2.50;;
69937;SDS011;57248;47.320;15.998;2022-12-18T04:27:02;10.13;;;2.65;;
69937;SDS011;57248;47.320;15.998;2022-12-18T04:29:40;8.93;;;2.27;;
69937;SDS011;57248;47.320;15.998;2022-12-18T04:32:14;7.00;;;1.92;;
69937;SDS011;57248;47.320;15.998;2022-12-18T04:34:42;7.35;;;2.03;;
69937;SDS011;57248;47.320;15.998;2022-12-18T04:37:14;8.52;;;2.25;;
69937;SDS011;57248;47.320;15.998;2022-12-18T04:39:48;7.20;;;1.50;;
69937;SDS011;57248;47.320;15.998;2022-12-18T04:42:27;7.83;;;2.23;;
69937;SDS011;57248;47.320;15.998;2022-12-18T04:44:59;7.88;;;1.98;;
69937;SDS011;57248;47.320;15.998;2022-12-18T04:47:31;9.75;;;2.67;;
69937;SDS011;57248;47.320;15.998;2022-12-18T04:49:57;11.47;;;3.23;;
69937;SDS011;57248;47.320;15.998;2022-12-18T04:52:32;9.77;;;2.80;;
69937;SDS011;57248;47.320;15.998;2022-12-18T04:55:05;11.13;;;3.05;;
69937;SDS011;57248;47.320;15.998;2022-12-18T04:57:36;7.97;;;2.63;;
69937;SDS011;57248;47.320;15.998;2022-12-18T05:00:09;9.50;;;2.40;;
69937;SDS011;57248;47.320;15.998;2022-12-18T05:02:41;7.73;;;2.10;;
69937;SDS011;57248;47.320;15.998;2022-12-18T05:05:13;8.52;;;1.98;;
69937;SDS011;57248;47.320;15.998;2022-12-18T05:07:45;8.23;;;1.90;;
69937;SDS011;57248;47.320;15.998;2022-12-18T05:10:17;10.65;;;2.50;;
69937;SDS011;57248;47.320;15.998;2022-12-18T05:12:49;8.63;;;2.38;;
69937;SDS011;57248;47.320;15.998;2022-12-18T05:15:31;9.17;;;2.20;;
69937;SDS011;57248;47.320;15.998;2022-12-18T05:18:04;8.13;;;1.98;;
69937;SDS011;57248;47.320;15.998;2022-12-18T05:20:35;6.45;;;1.90;;
69937;SDS011;57248;47.320;15.998;2022-12-18T05:23:14;7.82;;;2.17;;
69937;SDS011;57248;47.320;15.998;2022-12-18T05:25:53;7.35;;;2.03;;
69937;SDS011;57248;47.320;15.998;2022-12-18T05:28:27;8.83;;;2.30;;
69937;SDS011;57248;47.320;15.998;2022-12-18T05:31:01;9.75;;;2.28;;
69937;SDS011;57248;47.320;15.998;2022-12-18T05:33:35;10.35;;;2.63;;
69937;SDS011;57248;47.320;15.998;2022-12-18T05:36:07;8.93;;;2.95;;
69937;SDS011;57248;47.320;15.998;2022-12-18T05:38:40;8.77;;;2.30;;
69937;SDS011;57248;47.320;15.998;2022-12-18T05:41:12;9.13;;;1.80;;
69937;SDS011;57248;47.320;15.998;2022-12-18T05:43:44;9.00;;;2.03;;
69937;SDS011;57248;47.320;15.998;2022-12-18T05:46:17;9.23;;;2.03;;
69937;SDS011;57248;47.320;15.998;2022-12-18T05:48:50;8.15;;;2.00;;
69937;SDS011;57248;47.320;15.998;2022-12-18T05:51:22;8.73;;;2.38;;
69937;SDS011;57248;47.320;15.998;2022-12-18T05:53:54;10.53;;;2.40;;
69937;SDS011;57248;47.320;15.998;2022-12-18T05:56:25;8.32;;;2.28;;
69937;SDS011;57248;47.320;15.998;2022-12-18T05:58:58;9.38;;;2.42;;
69937;SDS011;57248;47.320;15.998;2022-12-18T06:01:30;10.43;;;2.38;;
69937;SDS011;57248;47.320;15.998;2022-12-18T06:04:02;10.80;;;2.70;;
69937;SDS011;57248;47.320;15.998;2022-12-18T06:06:34;10.37;;;2.37;;
69937;SDS011;57248;47.320;15.998;2022-12-18T06:09:06;8.50;;;1.98;;
69937;SDS011;57248;47.320;15.998;2022-12-18T06:11:40;8.52;;;2.28;;
69937;SDS011;57248;47.320;15.998;2022-12-18T06:14:13;7.68;;;2.40;;
69937;SDS011;57248;47.320;15.998;2022-12-18T06:16:38;9.13;;;2.27;;
69937;SDS011;57248;47.320;15.998;2022-12-18T06:19:14;13.00;;;2.60;;
69937;SDS011;57248;47.320;15.998;2022-12-18T06:21:47;8.60;;;2.25;;
69937;SDS011;57248;47.320;15.998;2022-12-18T06:24:20;6.68;;;1.98;;
69937;SDS011;57248;47.320;15.998;2022-12-18T06:26:46;10.93;;;2.47;;
69937;SDS011;57248;47.320;15.998;2022-12-18T06:29:17;9.57;;;2.30;;
69937;SDS011;57248;47.320;15.998;2022-12-18T06:31:49;8.40;;;2.20;;
69937;SDS011;57248;47.320;15.998;2022-12-18T06:34:21;9.27;;;2.25;;
69937;SDS011;57248;47.320;15.998;2022-12-18T06:36:47;8.30;;;2.30;;
69937;SDS011;57248;47.320;15.998;2022-12-18T06:39:19;8.20;;;2.25;;
69937;SDS011;57248;47.320;15.998;2022-12-18T06:41:50;8.80;;;2.33;;
69937;SDS011;57248;47.320;15.998;2022-12-18T06:44:22;9.15;;;2.10;;
69937;SDS011;57248;47.320;15.998;2022-12-18T06:46:55;9.77;;;2.65;;
69937;SDS011;57248;47.320;15.998;2022-12-18T06:49:26;9.60;;;2.20;;
69937;SDS011;57248;47.320;15.998;2022-12-18T06:52:00;9.73;;;2.42;;
69937;SDS011;57248;47.320;15.998;2022-12-18T06:54:31;8.20;;;2.38;;
69937;SDS011;57248;47.320;15.998;2022-12-18T06:57:03;9.63;;;2.92;;
69937;SDS011;57248;47.320;15.998;2022-12-18T06:59:36;10.88;;;3.28;;
69937;SDS011;57248;47.320;15.998;2022-12-18T07:02:10;8.97;;;2.60;;
69937;SDS011;57248;47.320;15.998;2022-12-18T07:04:42;9.57;;;3.17;;
69937;SDS011;57248;47.320;15.998;2022-12-18T07:07:14;11.75;;;3.03;;
69937;SDS011;57248;47.320;15.998;2022-12-18T07:09:46;14.82;;;4.38;;
69937;SDS011;57248;47.320;15.998;2022-12-18T07:12:20;14.48;;;4.68;;
69937;SDS011;57248;47.320;15.998;2022-12-18T07:14:52;14.70;;;4.20;;
69937;SDS011;57248;47.320;15.998;2022-12-18T07:17:24;12.63;;;3.92;;
69937;SDS011;57248;47.320;15.998;2022-12-18T07:19:56;12.93;;;3.88;;
69937;SDS011;57248;47.320;15.998;2022-12-18T07:22:29;12.63;;;4.07;;
69937;SDS011;57248;47.320;15.998;2022-12-18T07:25:01;20.02;;;5.45;;
69937;SDS011;57248;47.320;15.998;2022-12-18T07:27:32;17.73;;;6.10;;
69937;SDS011;57248;47.320;15.998;2022-12-18T07:30:05;17.50;;;5.35;;
69937;SDS011;57248;47.320;15.998;2022-12-18T07:32:31;16.65;;;5.78;;
69937;SDS011;57248;47.320;15.998;2022-12-18T07:35:03;24.05;;;8.02;;
69937;SDS011;57248;47.320;15.998;2022-12-18T07:37:35;25.15;;;8.30;;
69937;SDS011;57248;47.320;15.998;2022-12-18T07:40:07;21.77;;;7.83;;
69937;SDS011;57248;47.320;15.998;2022-12-18T07:42:40;19.38;;;6.63;;
69937;SDS011;57248;47.320;15.998;2022-12-18T07:45:11;30.63;;;8.55;;
69937;SDS011;57248;47.320;15.998;2022-12-18T07:47:43;34.38;;;10.52;;
69937;SDS011;57248;47.320;15.998;2022-12-18T07:50:16;36.55;;;9.85;;
69937;SDS011;57248;47.320;15.998;2022-12-18T07:52:48;34.73;;;10.30;;
69937;SDS011;57248;47.320;15.998;2022-12-18T07:55:13;30.53;;;10.50;;
69937;SDS011;57248;47.320;15.998;2022-12-18T07:57:45;29.57;;;11.53;;
69937;SDS011;57248;47.320;15.998;2022-12-18T08:00:17;37.92;;;12.90;;
69937;SDS011;57248;47.320;15.998;2022-12-18T08:02:48;30.85;;;10.00;;
69937;SDS011;57248;47.320;15.998;2022-12-18T08:05:21;23.25;;;8.43;;
69937;SDS011;57248;47.320;15.998;2022-12-18T08:07:53;19.05;;;6.32;;
69937;SDS011;57248;47.320;15.998;2022-12-18T08:10:25;16.03;;;5.10;;
69937;SDS011;57248;47.320;15.998;2022-12-18T08:12:57;15.52;;;5.35;;
69937;SDS011;57248;47.320;15.998;2022-12-18T08:15:30;15.50;;;5.20;;
69937;SDS011;57248;47.320;15.998;2022-12-18T08:18:02;17.35;;;5.55;;
69937;SDS011;57248;47.320;15.998;2022-12-18T08:20:27;17.40;;;6.43;;
69937;SDS011;57248;47.320;15.998;2022-12-18T08:23:00;15.35;;;5.82;;
69937;SDS011;57248;47.320;15.998;2022-12-18T08:25:33;20.40;;;7.13;;
69937;SDS011;57248;47.320;15.998;2022-12-18T08:28:06;15.52;;;6.00;;
69937;SDS011;57248;47.320;15.998;2022-12-18T08:30:38;18.30;;;6.73;;
69937;SDS011;57248;47.320;15.998;2022-12-18T08:33:10;19.27;;;6.43;;
69937;SDS011;57248;47.320;15.998;2022-12-18T08:35:41;10.60;;;3.80;;
69937;SDS011;57248;47.320;15.998;2022-12-18T08:38:14;11.82;;;4.00;;
69937;SDS011;57248;47.320;15.998;2022-12-18T08:40:46;13.48;;;4.88;;
69937;SDS011;57248;47.320;15.998;2022-12-18T08:43:11;13.33;;;4.53;;
69937;SDS011;57248;47.320;15.998;2022-12-18T08:46:19;21.92;;;6.35;;
69937;SDS011;57248;47.320;15.998;2022-12-18T08:48:53;18.97;;;7.67;;
69937;SDS011;57248;47.320;15.998;2022-12-18T08:51:26;14.52;;;5.28;;
69937;SDS011;57248;47.320;15.998;2022-12-18T08:53:58;13.88;;;5.00;;
69937;SDS011;57248;47.320;15.998;2022-12-18T08:56:36;16.80;;;5.38;;
69937;SDS011;57248;47.320;15.998;2022-12-18T08:59:09;18.00;;;7.03;;
69937;SDS011;57248;47.320;15.998;2022-12-18T09:01:41;18.87;;;7.50;;
69937;SDS011;57248;47.320;15.998;2022-12-18T09:04:13;21.63;;;7.72;;
69937;SDS011;57248;47.320;15.998;2022-12-18T09:06:46;22.65;;;8.13;;
69937;SDS011;57248;47.320;15.998;2022-12-18T09:09:20;17.50;;;6.47;;
69937;SDS011;57248;47.320;15.998;2022-12-18T09:11:54;12.13;;;4.60;;
69937;SDS011;57248;47.320;15.998;2022-12-18T09:14:26;12.83;;;4.50;;
69937;SDS011;57248;47.320;15.998;2022-12-18T09:16:59;12.02;;;4.55;;
69937;SDS011;57248;47.320;15.998;2022-12-18T09:19:31;14.80;;;4.78;;
69937;SDS011;57248;47.320;15.998;2022-12-18T09:22:17;12.85;;;4.75;;
69937;SDS011;57248;47.320;15.998;2022-12-18T09:24:49;16.92;;;7.35;;
69937;SDS011;57248;47.320;15.998;2022-12-18T09:27:22;18.27;;;5.97;;
69937;SDS011;57248;47.320;15.998;2022-12-18T09:29:54;19.75;;;8.68;;
69937;SDS011;57248;47.320;15.998;2022-12-18T09:32:19;29.57;;;13.60;;
69937;SDS011;57248;47.320;15.998;2022-12-18T09:34:52;13.75;;;4.78;;
69937;SDS011;57248;47.320;15.998;2022-12-18T09:37:17;20.57;;;9.90;;
69937;SDS011;57248;47.320;15.998;2022-12-18T09:39:49;13.35;;;5.18;;
69937;SDS011;57248;47.320;15.998;2022-12-18T09:42:22;22.50;;;9.20;;
69937;SDS011;57248;47.320;15.998;2022-12-18T09:44:54;31.77;;;15.25;;
69937;SDS011;57248;47.320;15.998;2022-12-18T09:47:28;20.67;;;9.27;;
69937;SDS011;57248;47.320;15.998;2022-12-18T09:50:27;18.13;;;8.10;;
69937;SDS011;57248;47.320;15.998;2022-12-18T09:53:06;27.08;;;10.02;;
69937;SDS011;57248;47.320;15.998;2022-12-18T09:55:45;23.65;;;10.77;;
69937;SDS011;57248;47.320;15.998;2022-12-18T09:58:34;14.13;;;4.78;;
69937;SDS011;57248;47.320;15.998;2022-12-18T10:01:18;18.00;;;7.03;;
69937;SDS011;57248;47.320;15.998;2022-12-18T10:03:54;21.07;;;7.00;;
69937;SDS011;57248;47.320;15.998;2022-12-18T10:06:31;18.42;;;6.32;;
69937;SDS011;57248;47.320;15.998;2022-12-18T10:14:50;24.60;;;8.52;;
69937;SDS011;57248;47.320;15.998;2022-12-18T10:21:03;14.63;;;4.85;;
69937;SDS011;57248;47.320;15.998;2022-12-18T10:26:30;22.15;;;6.90;;
69937;SDS011;57248;47.320;15.998;2022-12-18T10:29:12;25.65;;;8.48;;
69937;SDS011;57248;47.320;15.998;2022-12-18T10:31:46;28.43;;;9.07;;
69937;SDS011;57248;47.320;15.998;2022-12-18T10:34:18;29.95;;;9.20;;
69937;SDS011;57248;47.320;15.998;2022-12-18T10:36:50;26.02;;;7.68;;
69937;SDS011;57248;47.320;15.998;2022-12-18T10:39:23;25.63;;;8.15;;
69937;SDS011;57248;47.320;15.998;2022-12-18T10:42:14;20.95;;;7.53;;
69937;SDS011;57248;47.320;15.998;2022-12-18T10:44:51;28.13;;;8.70;;
69937;SDS011;57248;47.320;15.998;2022-12-18T10:47:34;20.98;;;5.78;;
69937;SDS011;57248;47.320;15.998;2022-12-18T10:50:11;22.35;;;7.05;;
69937;SDS011;57248;47.320;15.998;2022-12-18T10:52:58;19.45;;;7.18;;
69937;SDS011;57248;47.320;15.998;2022-12-18T10:55:38;26.63;;;8.45;;
69937;SDS011;57248;47.320;15.998;2022-12-18T10:58:27;22.77;;;8.00;;
69937;SDS011;57248;47.320;15.998;2022-12-18T11:01:16;19.77;;;7.43;;
69937;SDS011;57248;47.320;15.998;2022-12-18T11:06:27;22.55;;;7.57;;
69937;SDS011;57248;47.320;15.998;2022-12-18T11:09:00;25.10;;;8.00;;
69937;SDS011;57248;47.320;15.998;2022-12-18T11:11:35;24.10;;;7.80;;
69937;SDS011;57248;47.320;15.998;2022-12-18T11:14:12;15.95;;;4.97;;
69937;SDS011;57248;47.320;15.998;2022-12-18T11:16:52;21.73;;;8.90;;
69937;SDS011;57248;47.320;15.998;2022-12-18T11:19:29;29.10;;;9.10;;
69937;SDS011;57248;47.320;15.998;2022-12-18T11:22:20;16.35;;;6.00;;
69937;SDS011;57248;47.320;15.998;2022-12-18T11:27:49;21.08;;;6.32;;
69937;SDS011;57248;47.320;15.998;2022-12-18T11:32:56;23.50;;;8.30;;
69937;SDS011;57248;47.320;15.998;2022-12-18T11:38:13;23.20;;;8.07;;
69937;SDS011;57248;47.320;15.998;2022-12-18T11:43:27;24.70;;;8.25;;
69937;SDS011;57248;47.320;15.998;2022-12-18T11:46:05;22.70;;;8.23;;
69937;SDS011;57248;47.320;15.998;2022-12-18T11:49:01;22.35;;;7.07;;
69937;SDS011;57248;47.320;15.998;2022-12-18T11:51:54;18.27;;;6.47;;
69937;SDS011;57248;47.320;15.998;2022-12-18T11:54:34;18.38;;;5.93;;
69937;SDS011;57248;47.320;15.998;2022-12-18T12:00:04;18.92;;;5.65;;
69937;SDS011;57248;47.320;15.998;2022-12-18T12:05:55;14.70;;;4.93;;
69937;SDS011;57248;47.320;15.998;2022-12-18T12:08:45;21.23;;;6.97;;
69937;SDS011;57248;47.320;15.998;2022-12-18T12:17:03;18.27;;;5.43;;
69937;SDS011;57248;47.320;15.998;2022-12-18T12:25:59;17.80;;;6.00;;
69937;SDS011;57248;47.320;15.998;2022-12-18T12:28:53;20.35;;;6.25;;
69937;SDS011;57248;47.320;15.998;2022-12-18T12:31:42;19.15;;;6.43;;
69937;SDS011;57248;47.320;15.998;2022-12-18T12:34:24;22.43;;;7.60;;
69937;SDS011;57248;47.320;15.998;2022-12-18T12:37:26;19.08;;;6.88;;
69937;SDS011;57248;47.320;15.998;2022-12-18T12:40:02;19.23;;;5.88;;
69937;SDS011;57248;47.320;15.998;2022-12-18T12:42:36;23.77;;;7.63;;
69937;SDS011;57248;47.320;15.998;2022-12-18T12:45:34;20.15;;;7.13;;
69937;SDS011;57248;47.320;15.998;2022-12-18T12:48:40;22.13;;;7.23;;
69937;SDS011;57248;47.320;15.998;2022-12-18T12:51:18;19.77;;;6.55;;
69937;SDS011;57248;47.320;15.998;2022-12-18T12:53:53;20.30;;;7.03;;
69937;SDS011;57248;47.320;15.998;2022-12-18T12:56:43;22.88;;;7.95;;
69937;SDS011;57248;47.320;15.998;2022-12-18T12:59:19;23.95;;;7.75;;
69937;SDS011;57248;47.320;15.998;2022-12-18T13:01:58;17.90;;;6.53;;
69937;SDS011;57248;47.320;15.998;2022-12-18T13:05:38;17.77;;;6.47;;
69937;SDS011;57248;47.320;15.998;2022-12-18T13:07:54;27.00;;;9.45;;
69937;SDS011;57248;47.320;15.998;2022-12-18T13:10:32;18.92;;;7.38;;
69937;SDS011;57248;47.320;15.998;2022-12-18T13:13:11;22.15;;;8.63;;
69937;SDS011;57248;47.320;15.998;2022-12-18T13:16:03;22.10;;;8.53;;
69937;SDS011;57248;47.320;15.998;2022-12-18T13:18:47;18.63;;;7.00;;
69937;SDS011;57248;47.320;15.998;2022-12-18T13:21:33;19.85;;;7.40;;
69937;SDS011;57248;47.320;15.998;2022-12-18T13:24:39;16.50;;;6.38;;
69937;SDS011;57248;47.320;15.998;2022-12-18T13:38:35;20.17;;;6.78;;
69937;SDS011;57248;47.320;15.998;2022-12-18T13:43:49;25.97;;;9.10;;
69937;SDS011;57248;47.320;15.998;2022-12-18T13:46:46;24.90;;;8.15;;
69937;SDS011;57248;47.320;15.998;2022-12-18T13:52:19;24.25;;;8.38;;
69937;SDS011;57248;47.320;15.998;2022-12-18T13:54:57;18.30;;;6.45;;
69937;SDS011;57248;47.320;15.998;2022-12-18T13:57:32;20.83;;;7.83;;
69937;SDS011;57248;47.320;15.998;2022-12-18T14:02:54;21.98;;;7.47;;
69937;SDS011;57248;47.320;15.998;2022-12-18T14:05:28;26.98;;;10.77;;
69937;SDS011;57248;47.320;15.998;2022-12-18T14:08:10;27.58;;;10.77;;
69937;SDS011;57248;47.320;15.998;2022-12-18T14:10:47;31.03;;;10.80;;
69937;SDS011;57248;47.320;15.998;2022-12-18T14:13:26;22.75;;;8.98;;
69937;SDS011;57248;47.320;15.998;2022-12-18T14:16:04;20.77;;;6.38;;
69937;SDS011;57248;47.320;15.998;2022-12-18T14:21:31;25.77;;;8.23;;
69937;SDS011;57248;47.320;15.998;2022-12-18T14:24:16;30.77;;;10.30;;
69937;SDS011;57248;47.320;15.998;2022-12-18T14:26:58;24.40;;;8.70;;
69937;SDS011;57248;47.320;15.998;2022-12-18T14:29:52;24.08;;;7.53;;
69937;SDS011;57248;47.320;15.998;2022-12-18T14:32:24;24.73;;;8.10;;
69937;SDS011;57248;47.320;15.998;2022-12-18T14:34:56;21.33;;;7.43;;
69937;SDS011;57248;47.320;15.998;2022-12-18T14:37:29;24.37;;;8.37;;
69937;SDS011;57248;47.320;15.998;2022-12-18T14:40:11;28.40;;;9.27;;
69937;SDS011;57248;47.320;15.998;2022-12-18T14:42:44;31.00;;;11.02;;
69937;SDS011;57248;47.320;15.998;2022-12-18T14:45:35;31.17;;;11.73;;
69937;SDS011;57248;47.320;15.998;2022-12-18T14:51:00;28.30;;;9.33;;
69937;SDS011;57248;47.320;15.998;2022-12-18T14:53:42;23.13;;;7.15;;
69937;SDS011;57248;47.320;15.998;2022-12-18T14:56:23;27.13;;;7.82;;
69937;SDS011;57248;47.320;15.998;2022-12-18T14:59:21;40.78;;;12.73;;
69937;SDS011;57248;47.320;15.998;2022-12-18T15:04:40;29.63;;;9.10;;
69937;SDS011;57248;47.320;15.998;2022-12-18T15:12:41;24.08;;;8.05;;
69937;SDS011;57248;47.320;15.998;2022-12-18T15:20:44;29.15;;;9.25;;
69937;SDS011;57248;47.320;15.998;2022-12-18T15:23:29;27.23;;;8.50;;
69937;SDS011;57248;47.320;15.998;2022-12-18T15:26:15;20.35;;;6.30;;
69937;SDS011;57248;47.320;15.998;2022-12-18T15:28:51;27.98;;;8.93;;
69937;SDS011;57248;47.320;15.998;2022-12-18T15:31:29;29.10;;;9.20;;
69937;SDS011;57248;47.320;15.998;2022-12-18T15:36:52;31.65;;;10.32;;
69937;SDS011;57248;47.320;15.998;2022-12-18T15:39:24;26.88;;;8.45;;
69937;SDS011;57248;47.320;15.998;2022-12-18T15:41:57;33.40;;;9.95;;
69937;SDS011;57248;47.320;15.998;2022-12-18T15:44:48;42.30;;;13.57;;
69937;SDS011;57248;47.320;15.998;2022-12-18T15:47:20;39.00;;;13.07;;
69937;SDS011;57248;47.320;15.998;2022-12-18T15:49:52;61.08;;;19.70;;
69937;SDS011;57248;47.320;15.998;2022-12-18T15:52:24;51.10;;;16.75;;
69937;SDS011;57248;47.320;15.998;2022-12-18T15:54:57;44.42;;;13.07;;
69937;SDS011;57248;47.320;15.998;2022-12-18T15:57:48;32.27;;;9.53;;
69937;SDS011;57248;47.320;15.998;2022-12-18T16:00:20;34.67;;;11.52;;
69937;SDS011;57248;47.320;15.998;2022-12-18T16:02:52;29.55;;;9.60;;
69937;SDS011;57248;47.320;15.998;2022-12-18T16:05:24;27.60;;;8.43;;
69937;SDS011;57248;47.320;15.998;2022-12-18T16:07:51;31.42;;;8.90;;
69937;SDS011;57248;47.320;15.998;2022-12-18T16:10:24;29.33;;;9.23;;
69937;SDS011;57248;47.320;15.998;2022-12-18T16:12:57;39.58;;;14.18;;
69937;SDS011;57248;47.320;15.998;2022-12-18T16:15:29;27.33;;;8.93;;
69937;SDS011;57248;47.320;15.998;2022-12-18T16:18:01;25.95;;;8.95;;
69937;SDS011;57248;47.320;15.998;2022-12-18T16:20:26;50.33;;;18.23;;
69937;SDS011;57248;47.320;15.998;2022-12-18T16:23:00;30.92;;;9.27;;
69937;SDS011;57248;47.320;15.998;2022-12-18T16:25:45;29.10;;;8.50;;
69937;SDS011;57248;47.320;15.998;2022-12-18T16:28:19;28.13;;;9.20;;
69937;SDS011;57248;47.320;15.998;2022-12-18T16:30:44;26.85;;;8.60;;
69937;SDS011;57248;47.320;15.998;2022-12-18T16:33:16;24.10;;;8.30;;
69937;SDS011;57248;47.320;15.998;2022-12-18T16:35:52;29.03;;;10.23;;
69937;SDS011;57248;47.320;15.998;2022-12-18T16:38:25;28.55;;;9.95;;
69937;SDS011;57248;47.320;15.998;2022-12-18T16:40:50;34.23;;;10.93;;
69937;SDS011;57248;47.320;15.998;2022-12-18T16:43:41;40.92;;;13.55;;
69937;SDS011;57248;47.320;15.998;2022-12-18T16:46:13;46.05;;;18.00;;
69937;SDS011;57248;47.320;15.998;2022-12-18T16:48:45;30.48;;;10.88;;
69937;SDS011;57248;47.320;15.998;2022-12-18T16:51:17;29.10;;;8.68;;
69937;SDS011;57248;47.320;15.998;2022-12-18T16:53:51;27.17;;;8.90;;
69937;SDS011;57248;47.320;15.998;2022-12-18T16:56:17;33.28;;;9.93;;
69937;SDS011;57248;47.320;15.998;2022-12-18T16:58:52;29.13;;;8.98;;
69937;SDS011;57248;47.320;15.998;2022-12-18T17:01:26;28.02;;;8.50;;
69937;SDS011;57248;47.320;15.998;2022-12-18T17:04:03;30.02;;;8.50;;
69937;SDS011;57248;47.320;15.998;2022-12-18T17:06:39;29.07;;;9.53;;